sensor_id;sensor_type;location;lat;lon;timestamp;temperature;humidity
4107;DHT22;21906;50.812;7.132;2022-08-19T00:01:44;21.20;68.30
4107;DHT22;21906;50.812;7.132;2022-08-19T00:04:12;21.20;68.20
4107;DHT22;21906;50.812;7.132;2022-08-19T00:06:40;21.10;68.50
4107;DHT22;21906;50.812;7.132;2022-08-19T00:09:08;21.10;68.60
4107;DHT22;21906;50.812;7.132;2022-08-19T00:11:34;21.10;68.70
4107;DHT22;21906;50.812;7.132;2022-08-19T00:14:04;21.00;68.70
4107;DHT22;21906;50.812;7.132;2022-08-19T00:16:31;21.00;68.90
4107;DHT22;21906;50.812;7.132;2022-08-19T00:18:57;20.90;69.00
4107;DHT22;21906;50.812;7.132;2022-08-19T00:21:25;20.90;69.10
4107;DHT22;21906;50.812;7.132;2022-08-19T00:23:53;20.90;69.10
4107;DHT22;21906;50.812;7.132;2022-08-19T00:26:19;20.90;69.10
4107;DHT22;21906;50.812;7.132;2022-08-19T00:28:45;20.90;69.00
4107;DHT22;21906;50.812;7.132;2022-08-19T00:31:11;20.90;69.10
4107;DHT22;21906;50.812;7.132;2022-08-19T00:33:37;20.90;69.10
4107;DHT22;21906;50.812;7.132;2022-08-19T00:36:06;20.90;69.20
4107;DHT22;21906;50.812;7.132;2022-08-19T00:38:33;20.90;69.10
4107;DHT22;21906;50.812;7.132;2022-08-19T00:40:59;20.90;69.20
4107;DHT22;21906;50.812;7.132;2022-08-19T00:43:27;20.80;69.20
4107;DHT22;21906;50.812;7.132;2022-08-19T00:45:53;20.90;69.20
4107;DHT22;21906;50.812;7.132;2022-08-19T00:48:20;20.80;69.20
4107;DHT22;21906;50.812;7.132;2022-08-19T00:50:48;20.80;69.20
4107;DHT22;21906;50.812;7.132;2022-08-19T00:53:18;20.80;69.40
4107;DHT22;21906;50.812;7.132;2022-08-19T00:55:46;20.70;69.40
4107;DHT22;21906;50.812;7.132;2022-08-19T00:58:15;20.70;69.50
4107;DHT22;21906;50.812;7.132;2022-08-19T01:00:43;20.70;69.70
4107;DHT22;21906;50.812;7.132;2022-08-19T01:03:12;20.70;69.70
4107;DHT22;21906;50.812;7.132;2022-08-19T01:05:40;20.70;69.70
4107;DHT22;21906;50.812;7.132;2022-08-19T01:08:07;20.60;69.80
4107;DHT22;21906;50.812;7.132;2022-08-19T01:10:39;20.60;69.90
4107;DHT22;21906;50.812;7.132;2022-08-19T01:13:05;20.60;70.00
4107;DHT22;21906;50.812;7.132;2022-08-19T01:15:35;20.60;69.90
4107;DHT22;21906;50.812;7.132;2022-08-19T01:18:09;20.60;69.80
4107;DHT22;21906;50.812;7.132;2022-08-19T01:20:36;20.50;69.70
4107;DHT22;21906;50.812;7.132;2022-08-19T01:23:02;20.50;69.80
4107;DHT22;21906;50.812;7.132;2022-08-19T01:25:41;20.50;70.00
4107;DHT22;21906;50.812;7.132;2022-08-19T01:28:18;20.50;70.10
4107;DHT22;21906;50.812;7.132;2022-08-19T01:30:45;20.50;70.20
4107;DHT22;21906;50.812;7.132;2022-08-19T01:33:12;20.40;70.00
4107;DHT22;21906;50.812;7.132;2022-08-19T01:35:38;20.40;70.00
4107;DHT22;21906;50.812;7.132;2022-08-19T01:38:07;20.40;69.90
4107;DHT22;21906;50.812;7.132;2022-08-19T01:40:36;20.40;70.10
4107;DHT22;21906;50.812;7.132;2022-08-19T01:43:02;20.40;70.30
4107;DHT22;21906;50.812;7.132;2022-08-19T01:45:30;20.40;70.20
4107;DHT22;21906;50.812;7.132;2022-08-19T01:47:57;20.30;70.20
4107;DHT22;21906;50.812;7.132;2022-08-19T01:50:24;20.30;70.30
4107;DHT22;21906;50.812;7.132;2022-08-19T01:52:51;20.30;70.40
4107;DHT22;21906;50.812;7.132;2022-08-19T01:55:20;20.30;70.40
4107;DHT22;21906;50.812;7.132;2022-08-19T01:57:50;20.30;70.60
4107;DHT22;21906;50.812;7.132;2022-08-19T02:00:20;20.30;70.60
4107;DHT22;21906;50.812;7.132;2022-08-19T02:02:46;20.30;70.70
4107;DHT22;21906;50.812;7.132;2022-08-19T02:05:13;20.30;70.90
4107;DHT22;21906;50.812;7.132;2022-08-19T02:07:40;20.20;70.80
4107;DHT22;21906;50.812;7.132;2022-08-19T02:10:10;20.30;70.90
4107;DHT22;21906;50.812;7.132;2022-08-19T02:12:36;20.20;70.90
4107;DHT22;21906;50.812;7.132;2022-08-19T02:15:03;20.20;70.90
4107;DHT22;21906;50.812;7.132;2022-08-19T02:17:29;20.20;71.00
4107;DHT22;21906;50.812;7.132;2022-08-19T02:19:55;20.20;71.10
4107;DHT22;21906;50.812;7.132;2022-08-19T02:22:22;20.20;71.00
4107;DHT22;21906;50.812;7.132;2022-08-19T02:24:54;20.20;71.10
4107;DHT22;21906;50.812;7.132;2022-08-19T02:27:21;20.10;71.20
4107;DHT22;21906;50.812;7.132;2022-08-19T02:29:48;20.10;71.20
4107;DHT22;21906;50.812;7.132;2022-08-19T02:32:15;20.10;71.30
4107;DHT22;21906;50.812;7.132;2022-08-19T02:34:41;20.10;71.30
4107;DHT22;21906;50.812;7.132;2022-08-19T02:37:06;20.10;71.20
4107;DHT22;21906;50.812;7.132;2022-08-19T02:39:52;20.10;71.20
4107;DHT22;21906;50.812;7.132;2022-08-19T02:42:18;20.10;71.20
4107;DHT22;21906;50.812;7.132;2022-08-19T02:44:43;20.10;71.20
4107;DHT22;21906;50.812;7.132;2022-08-19T02:47:10;20.10;71.30
4107;DHT22;21906;50.812;7.132;2022-08-19T02:49:36;20.10;71.30
4107;DHT22;21906;50.812;7.132;2022-08-19T02:52:02;20.10;71.40
4107;DHT22;21906;50.812;7.132;2022-08-19T02:54:28;20.10;71.50
4107;DHT22;21906;50.812;7.132;2022-08-19T02:56:54;20.00;71.50
4107;DHT22;21906;50.812;7.132;2022-08-19T02:59:19;20.00;71.50
4107;DHT22;21906;50.812;7.132;2022-08-19T03:01:45;20.00;71.60
4107;DHT22;21906;50.812;7.132;2022-08-19T03:04:13;20.00;71.60
4107;DHT22;21906;50.812;7.132;2022-08-19T03:06:44;20.00;71.60
4107;DHT22;21906;50.812;7.132;2022-08-19T03:09:11;20.00;71.60
4107;DHT22;21906;50.812;7.132;2022-08-19T03:11:38;20.00;71.50
4107;DHT22;21906;50.812;7.132;2022-08-19T03:14:05;20.00;71.60
4107;DHT22;21906;50.812;7.132;2022-08-19T03:16:34;20.00;71.60
4107;DHT22;21906;50.812;7.132;2022-08-19T03:19:00;20.00;71.60
4107;DHT22;21906;50.812;7.132;2022-08-19T03:21:28;19.90;71.60
4107;DHT22;21906;50.812;7.132;2022-08-19T03:23:56;19.90;71.60
4107;DHT22;21906;50.812;7.132;2022-08-19T03:26:22;19.90;71.70
4107;DHT22;21906;50.812;7.132;2022-08-19T03:28:47;19.90;71.70
4107;DHT22;21906;50.812;7.132;2022-08-19T03:31:19;19.90;71.90
4107;DHT22;21906;50.812;7.132;2022-08-19T03:33:47;19.90;71.80
4107;DHT22;21906;50.812;7.132;2022-08-19T03:36:19;19.80;72.00
4107;DHT22;21906;50.812;7.132;2022-08-19T03:38:49;19.80;71.90
4107;DHT22;21906;50.812;7.132;2022-08-19T03:41:19;19.80;71.80
4107;DHT22;21906;50.812;7.132;2022-08-19T03:43:45;19.80;71.90
4107;DHT22;21906;50.812;7.132;2022-08-19T03:46:22;19.80;72.00
4107;DHT22;21906;50.812;7.132;2022-08-19T03:48:49;19.70;72.00
4107;DHT22;21906;50.812;7.132;2022-08-19T03:51:28;19.70;72.10
4107;DHT22;21906;50.812;7.132;2022-08-19T03:53:57;19.70;72.30
4107;DHT22;21906;50.812;7.132;2022-08-19T03:56:24;19.70;72.40
4107;DHT22;21906;50.812;7.132;2022-08-19T03:58:51;19.70;72.60
4107;DHT22;21906;50.812;7.132;2022-08-19T04:01:19;19.70;72.50
4107;DHT22;21906;50.812;7.132;2022-08-19T04:03:46;19.60;72.50
4107;DHT22;21906;50.812;7.132;2022-08-19T04:06:17;19.60;72.50
4107;DHT22;21906;50.812;7.132;2022-08-19T04:08:44;19.60;72.60
4107;DHT22;21906;50.812;7.132;2022-08-19T04:11:12;19.60;72.50
4107;DHT22;21906;50.812;7.132;2022-08-19T04:13:38;19.60;72.30
4107;DHT22;21906;50.812;7.132;2022-08-19T04:16:05;19.70;72.20
4107;DHT22;21906;50.812;7.132;2022-08-19T04:18:31;19.70;72.30
4107;DHT22;21906;50.812;7.132;2022-08-19T04:20:58;19.60;72.40
4107;DHT22;21906;50.812;7.132;2022-08-19T04:23:24;19.60;72.40
4107;DHT22;21906;50.812;7.132;2022-08-19T04:25:50;19.60;72.50
4107;DHT22;21906;50.812;7.132;2022-08-19T04:28:16;19.50;72.60
4107;DHT22;21906;50.812;7.132;2022-08-19T04:30:45;19.50;72.60
4107;DHT22;21906;50.812;7.132;2022-08-19T04:33:14;19.50;72.70
4107;DHT22;21906;50.812;7.132;2022-08-19T04:35:43;19.50;72.60
4107;DHT22;21906;50.812;7.132;2022-08-19T04:38:09;19.50;72.90
4107;DHT22;21906;50.812;7.132;2022-08-19T04:40:40;19.50;72.90
4107;DHT22;21906;50.812;7.132;2022-08-19T04:43:26;19.50;72.90
4107;DHT22;21906;50.812;7.132;2022-08-19T04:45:51;19.50;72.90
4107;DHT22;21906;50.812;7.132;2022-08-19T04:48:17;19.50;72.90
4107;DHT22;21906;50.812;7.132;2022-08-19T04:50:52;19.50;72.90
4107;DHT22;21906;50.812;7.132;2022-08-19T04:53:23;19.50;72.80
4107;DHT22;21906;50.812;7.132;2022-08-19T04:55:49;19.50;72.70
4107;DHT22;21906;50.812;7.132;2022-08-19T04:58:15;19.40;72.80
4107;DHT22;21906;50.812;7.132;2022-08-19T05:00:42;19.50;72.80
4107;DHT22;21906;50.812;7.132;2022-08-19T05:03:09;19.50;72.80
4107;DHT22;21906;50.812;7.132;2022-08-19T05:05:39;19.50;72.80
4107;DHT22;21906;50.812;7.132;2022-08-19T05:08:05;19.50;72.80
4107;DHT22;21906;50.812;7.132;2022-08-19T05:10:31;19.60;72.70
4107;DHT22;21906;50.812;7.132;2022-08-19T05:12:56;19.60;72.80
4107;DHT22;21906;50.812;7.132;2022-08-19T05:15:22;19.60;72.70
4107;DHT22;21906;50.812;7.132;2022-08-19T05:17:48;19.60;72.60
4107;DHT22;21906;50.812;7.132;2022-08-19T05:20:32;19.70;72.60
4107;DHT22;21906;50.812;7.132;2022-08-19T05:23:16;19.70;72.60
4107;DHT22;21906;50.812;7.132;2022-08-19T05:25:42;19.70;72.60
4107;DHT22;21906;50.812;7.132;2022-08-19T05:28:08;19.70;72.60
4107;DHT22;21906;50.812;7.132;2022-08-19T05:30:34;19.70;72.60
4107;DHT22;21906;50.812;7.132;2022-08-19T05:32:59;19.70;72.60
4107;DHT22;21906;50.812;7.132;2022-08-19T05:35:25;19.70;73.30
4107;DHT22;21906;50.812;7.132;2022-08-19T05:37:50;19.60;73.40
4107;DHT22;21906;50.812;7.132;2022-08-19T05:40:18;19.70;73.40
4107;DHT22;21906;50.812;7.132;2022-08-19T05:42:44;19.70;73.40
4107;DHT22;21906;50.812;7.132;2022-08-19T05:45:10;19.70;73.50
4107;DHT22;21906;50.812;7.132;2022-08-19T05:47:36;19.80;73.60
4107;DHT22;21906;50.812;7.132;2022-08-19T05:50:03;19.70;73.80
4107;DHT22;21906;50.812;7.132;2022-08-19T05:52:29;19.80;73.90
4107;DHT22;21906;50.812;7.132;2022-08-19T05:54:55;19.80;74.10
4107;DHT22;21906;50.812;7.132;2022-08-19T05:57:21;19.90;74.20
4107;DHT22;21906;50.812;7.132;2022-08-19T05:59:47;19.90;74.20
4107;DHT22;21906;50.812;7.132;2022-08-19T06:02:13;19.90;74.40
4107;DHT22;21906;50.812;7.132;2022-08-19T06:04:39;19.90;74.20
4107;DHT22;21906;50.812;7.132;2022-08-19T06:07:08;19.90;74.40
4107;DHT22;21906;50.812;7.132;2022-08-19T06:09:33;20.00;74.30
4107;DHT22;21906;50.812;7.132;2022-08-19T06:12:00;20.10;74.20
4107;DHT22;21906;50.812;7.132;2022-08-19T06:14:33;20.10;74.40
4107;DHT22;21906;50.812;7.132;2022-08-19T06:17:00;20.20;74.30
4107;DHT22;21906;50.812;7.132;2022-08-19T06:19:28;20.20;74.30
4107;DHT22;21906;50.812;7.132;2022-08-19T06:21:56;20.30;74.20
4107;DHT22;21906;50.812;7.132;2022-08-19T06:24:25;20.40;74.10
4107;DHT22;21906;50.812;7.132;2022-08-19T06:26:53;20.40;74.10
4107;DHT22;21906;50.812;7.132;2022-08-19T06:29:22;20.40;74.20
4107;DHT22;21906;50.812;7.132;2022-08-19T06:31:52;20.50;74.30
4107;DHT22;21906;50.812;7.132;2022-08-19T06:34:18;20.50;74.40
4107;DHT22;21906;50.812;7.132;2022-08-19T06:36:47;20.60;74.40
4107;DHT22;21906;50.812;7.132;2022-08-19T06:39:16;20.60;74.20
4107;DHT22;21906;50.812;7.132;2022-08-19T06:41:44;20.70;74.30
4107;DHT22;21906;50.812;7.132;2022-08-19T06:44:11;20.80;74.10
4107;DHT22;21906;50.812;7.132;2022-08-19T06:46:38;20.90;74.00
4107;DHT22;21906;50.812;7.132;2022-08-19T06:49:04;21.00;73.80
4107;DHT22;21906;50.812;7.132;2022-08-19T06:51:29;21.00;74.00
4107;DHT22;21906;50.812;7.132;2022-08-19T06:53:57;21.00;74.10
4107;DHT22;21906;50.812;7.132;2022-08-19T06:56:29;21.10;74.10
4107;DHT22;21906;50.812;7.132;2022-08-19T06:58:57;21.20;73.70
4107;DHT22;21906;50.812;7.132;2022-08-19T07:01:23;21.10;73.90
4107;DHT22;21906;50.812;7.132;2022-08-19T07:03:49;21.10;74.00
4107;DHT22;21906;50.812;7.132;2022-08-19T07:06:17;21.10;74.20
4107;DHT22;21906;50.812;7.132;2022-08-19T07:08:45;21.10;74.10
4107;DHT22;21906;50.812;7.132;2022-08-19T07:11:14;21.20;74.00
4107;DHT22;21906;50.812;7.132;2022-08-19T07:13:41;21.40;73.70
4107;DHT22;21906;50.812;7.132;2022-08-19T07:16:12;21.40;73.60
4107;DHT22;21906;50.812;7.132;2022-08-19T07:18:38;21.40;73.60
4107;DHT22;21906;50.812;7.132;2022-08-19T07:21:05;21.50;73.40
4107;DHT22;21906;50.812;7.132;2022-08-19T07:23:32;21.50;73.20
4107;DHT22;21906;50.812;7.132;2022-08-19T07:25:58;21.60;73.30
4107;DHT22;21906;50.812;7.132;2022-08-19T07:28:23;21.50;73.50
4107;DHT22;21906;50.812;7.132;2022-08-19T07:30:49;21.60;73.40
4107;DHT22;21906;50.812;7.132;2022-08-19T07:33:16;21.60;73.40
4107;DHT22;21906;50.812;7.132;2022-08-19T07:35:42;21.70;73.00
4107;DHT22;21906;50.812;7.132;2022-08-19T07:38:09;21.90;72.40
4107;DHT22;21906;50.812;7.132;2022-08-19T07:40:35;21.90;72.50
4107;DHT22;21906;50.812;7.132;2022-08-19T07:43:01;21.90;72.50
4107;DHT22;21906;50.812;7.132;2022-08-19T07:45:27;22.10;72.40
4107;DHT22;21906;50.812;7.132;2022-08-19T07:47:54;22.10;72.10
4107;DHT22;21906;50.812;7.132;2022-08-19T07:50:20;22.20;71.70
4107;DHT22;21906;50.812;7.132;2022-08-19T07:52:47;22.20;71.60
4107;DHT22;21906;50.812;7.132;2022-08-19T07:55:15;22.20;71.50
4107;DHT22;21906;50.812;7.132;2022-08-19T07:57:41;22.30;71.90
4107;DHT22;21906;50.812;7.132;2022-08-19T08:00:07;22.40;71.20
4107;DHT22;21906;50.812;7.132;2022-08-19T08:02:33;22.60;70.70
4107;DHT22;21906;50.812;7.132;2022-08-19T08:04:59;22.60;70.00
4107;DHT22;21906;50.812;7.132;2022-08-19T08:07:43;22.60;70.50
4107;DHT22;21906;50.812;7.132;2022-08-19T08:10:27;22.80;70.10
4107;DHT22;21906;50.812;7.132;2022-08-19T08:12:53;22.90;69.40
4107;DHT22;21906;50.812;7.132;2022-08-19T08:15:20;22.90;68.60
4107;DHT22;21906;50.812;7.132;2022-08-19T08:17:46;23.00;68.30
4107;DHT22;21906;50.812;7.132;2022-08-19T08:20:13;23.20;68.30
4107;DHT22;21906;50.812;7.132;2022-08-19T08:22:45;23.30;67.90
4107;DHT22;21906;50.812;7.132;2022-08-19T08:25:48;23.40;66.70
4107;DHT22;21906;50.812;7.132;2022-08-19T08:28:15;23.50;65.60
4107;DHT22;21906;50.812;7.132;2022-08-19T08:30:41;23.60;65.30
4107;DHT22;21906;50.812;7.132;2022-08-19T08:33:09;23.60;64.50
4107;DHT22;21906;50.812;7.132;2022-08-19T08:35:35;23.60;64.60
4107;DHT22;21906;50.812;7.132;2022-08-19T08:38:02;23.70;64.10
4107;DHT22;21906;50.812;7.132;2022-08-19T08:40:34;23.80;64.20
4107;DHT22;21906;50.812;7.132;2022-08-19T08:43:06;24.00;62.80
4107;DHT22;21906;50.812;7.132;2022-08-19T08:45:38;24.00;62.20
4107;DHT22;21906;50.812;7.132;2022-08-19T08:48:31;23.90;63.10
4107;DHT22;21906;50.812;7.132;2022-08-19T08:51:03;23.80;62.70
4107;DHT22;21906;50.812;7.132;2022-08-19T08:53:30;23.80;63.00
4107;DHT22;21906;50.812;7.132;2022-08-19T08:55:57;23.80;62.90
4107;DHT22;21906;50.812;7.132;2022-08-19T08:59:02;23.80;62.40
4107;DHT22;21906;50.812;7.132;2022-08-19T09:01:29;23.90;62.70
4107;DHT22;21906;50.812;7.132;2022-08-19T09:03:54;23.90;62.70
4107;DHT22;21906;50.812;7.132;2022-08-19T09:17:02;24.00;63.00
4107;DHT22;21906;50.812;7.132;2022-08-19T09:19:29;24.10;62.20
4107;DHT22;21906;50.812;7.132;2022-08-19T09:21:55;24.20;62.10
4107;DHT22;21906;50.812;7.132;2022-08-19T09:24:21;24.20;61.80
4107;DHT22;21906;50.812;7.132;2022-08-19T09:26:47;24.20;60.80
4107;DHT22;21906;50.812;7.132;2022-08-19T09:29:13;24.20;61.10
4107;DHT22;21906;50.812;7.132;2022-08-19T09:31:39;24.40;61.00
4107;DHT22;21906;50.812;7.132;2022-08-19T09:34:04;24.50;61.20
4107;DHT22;21906;50.812;7.132;2022-08-19T09:36:31;24.70;60.20
4107;DHT22;21906;50.812;7.132;2022-08-19T09:39:03;24.70;59.80
4107;DHT22;21906;50.812;7.132;2022-08-19T09:41:29;24.80;60.20
4107;DHT22;21906;50.812;7.132;2022-08-19T09:43:57;24.80;59.70
4107;DHT22;21906;50.812;7.132;2022-08-19T09:46:27;24.80;59.90
4107;DHT22;21906;50.812;7.132;2022-08-19T09:48:54;24.60;59.40
4107;DHT22;21906;50.812;7.132;2022-08-19T09:51:26;24.60;59.00
4107;DHT22;21906;50.812;7.132;2022-08-19T09:53:54;24.60;59.40
4107;DHT22;21906;50.812;7.132;2022-08-19T09:56:23;24.60;58.40
4107;DHT22;21906;50.812;7.132;2022-08-19T09:58:49;24.50;57.50
4107;DHT22;21906;50.812;7.132;2022-08-19T10:01:17;24.50;56.50
4107;DHT22;21906;50.812;7.132;2022-08-19T10:03:43;24.60;57.10
4107;DHT22;21906;50.812;7.132;2022-08-19T10:06:12;24.80;57.90
4107;DHT22;21906;50.812;7.132;2022-08-19T10:08:37;25.00;56.70
4107;DHT22;21906;50.812;7.132;2022-08-19T10:11:05;25.10;57.40
4107;DHT22;21906;50.812;7.132;2022-08-19T10:13:32;25.10;57.30
4107;DHT22;21906;50.812;7.132;2022-08-19T10:16:07;25.20;57.80
4107;DHT22;21906;50.812;7.132;2022-08-19T10:18:35;25.20;58.10
4107;DHT22;21906;50.812;7.132;2022-08-19T10:21:05;25.40;57.30
4107;DHT22;21906;50.812;7.132;2022-08-19T10:23:34;25.40;56.70
4107;DHT22;21906;50.812;7.132;2022-08-19T10:26:00;25.50;57.30
4107;DHT22;21906;50.812;7.132;2022-08-19T10:28:26;25.50;57.00
4107;DHT22;21906;50.812;7.132;2022-08-19T10:30:51;25.60;56.80
4107;DHT22;21906;50.812;7.132;2022-08-19T10:33:18;25.80;56.60
4107;DHT22;21906;50.812;7.132;2022-08-19T10:35:43;26.00;56.90
4107;DHT22;21906;50.812;7.132;2022-08-19T10:38:09;26.30;56.50
4107;DHT22;21906;50.812;7.132;2022-08-19T10:40:35;26.40;55.20
4107;DHT22;21906;50.812;7.132;2022-08-19T10:43:00;26.50;54.20
4107;DHT22;21906;50.812;7.132;2022-08-19T10:45:26;26.40;53.70
4107;DHT22;21906;50.812;7.132;2022-08-19T10:47:53;26.30;54.30
4107;DHT22;21906;50.812;7.132;2022-08-19T10:50:19;26.50;53.40
4107;DHT22;21906;50.812;7.132;2022-08-19T10:53:07;26.30;53.60
4107;DHT22;21906;50.812;7.132;2022-08-19T10:55:36;26.30;52.50
4107;DHT22;21906;50.812;7.132;2022-08-19T10:58:21;26.40;52.90
4107;DHT22;21906;50.812;7.132;2022-08-19T11:00:55;26.60;51.20
4107;DHT22;21906;50.812;7.132;2022-08-19T11:03:22;26.80;51.60
4107;DHT22;21906;50.812;7.132;2022-08-19T11:06:00;26.90;51.10
4107;DHT22;21906;50.812;7.132;2022-08-19T11:08:26;26.90;50.40
4107;DHT22;21906;50.812;7.132;2022-08-19T11:10:53;26.80;50.30
4107;DHT22;21906;50.812;7.132;2022-08-19T11:13:22;26.70;50.40
4107;DHT22;21906;50.812;7.132;2022-08-19T11:15:59;26.80;50.10
4107;DHT22;21906;50.812;7.132;2022-08-19T11:18:25;26.80;50.70
4107;DHT22;21906;50.812;7.132;2022-08-19T11:20:52;26.80;50.20
4107;DHT22;21906;50.812;7.132;2022-08-19T11:23:18;26.70;50.20
4107;DHT22;21906;50.812;7.132;2022-08-19T11:25:44;26.70;50.80
4107;DHT22;21906;50.812;7.132;2022-08-19T11:28:11;26.90;50.60
4107;DHT22;21906;50.812;7.132;2022-08-19T11:30:38;27.10;49.30
4107;DHT22;21906;50.812;7.132;2022-08-19T11:33:04;27.10;48.40
4107;DHT22;21906;50.812;7.132;2022-08-19T11:35:29;26.90;48.30
4107;DHT22;21906;50.812;7.132;2022-08-19T11:37:55;26.90;48.80
4107;DHT22;21906;50.812;7.132;2022-08-19T11:40:26;26.90;49.70
4107;DHT22;21906;50.812;7.132;2022-08-19T11:42:52;26.90;49.00
4107;DHT22;21906;50.812;7.132;2022-08-19T11:45:20;26.90;48.90
4107;DHT22;21906;50.812;7.132;2022-08-19T11:47:46;26.60;49.10
4107;DHT22;21906;50.812;7.132;2022-08-19T11:50:13;26.80;49.30
4107;DHT22;21906;50.812;7.132;2022-08-19T11:52:39;26.90;49.20
4107;DHT22;21906;50.812;7.132;2022-08-19T11:55:05;26.90;49.00
4107;DHT22;21906;50.812;7.132;2022-08-19T11:57:31;27.00;48.90
4107;DHT22;21906;50.812;7.132;2022-08-19T11:59:57;27.10;48.80
4107;DHT22;21906;50.812;7.132;2022-08-19T12:02:23;27.20;48.40
4107;DHT22;21906;50.812;7.132;2022-08-19T12:04:49;27.20;48.60
4107;DHT22;21906;50.812;7.132;2022-08-19T12:07:15;27.50;48.60
4107;DHT22;21906;50.812;7.132;2022-08-19T12:09:40;27.60;47.80
4107;DHT22;21906;50.812;7.132;2022-08-19T12:12:06;27.60;47.20
4107;DHT22;21906;50.812;7.132;2022-08-19T12:14:32;27.50;46.90
4107;DHT22;21906;50.812;7.132;2022-08-19T12:16:58;27.40;47.40
4107;DHT22;21906;50.812;7.132;2022-08-19T12:19:24;27.30;47.10
4107;DHT22;21906;50.812;7.132;2022-08-19T12:21:50;27.20;47.30
4107;DHT22;21906;50.812;7.132;2022-08-19T12:24:18;27.10;47.60
4107;DHT22;21906;50.812;7.132;2022-08-19T12:26:48;27.20;47.40
4107;DHT22;21906;50.812;7.132;2022-08-19T12:29:14;27.10;46.50
4107;DHT22;21906;50.812;7.132;2022-08-19T12:31:40;26.90;46.90
4107;DHT22;21906;50.812;7.132;2022-08-19T12:34:05;27.00;47.10
4107;DHT22;21906;50.812;7.132;2022-08-19T12:36:31;27.40;47.30
4107;DHT22;21906;50.812;7.132;2022-08-19T12:38:58;27.50;45.60
4107;DHT22;21906;50.812;7.132;2022-08-19T12:41:24;27.70;45.90
4107;DHT22;21906;50.812;7.132;2022-08-19T12:43:50;27.80;44.90
4107;DHT22;21906;50.812;7.132;2022-08-19T12:46:17;27.90;44.10
4107;DHT22;21906;50.812;7.132;2022-08-19T12:48:43;28.40;43.00
4107;DHT22;21906;50.812;7.132;2022-08-19T12:51:13;28.50;43.40
4107;DHT22;21906;50.812;7.132;2022-08-19T12:53:39;28.60;44.00
4107;DHT22;21906;50.812;7.132;2022-08-19T12:56:09;28.70;43.90
4107;DHT22;21906;50.812;7.132;2022-08-19T12:58:36;28.50;44.10
4107;DHT22;21906;50.812;7.132;2022-08-19T13:01:10;28.50;42.60
4107;DHT22;21906;50.812;7.132;2022-08-19T13:03:36;28.50;42.80
4107;DHT22;21906;50.812;7.132;2022-08-19T13:06:02;28.60;43.60
4107;DHT22;21906;50.812;7.132;2022-08-19T13:08:28;28.90;42.00
4107;DHT22;21906;50.812;7.132;2022-08-19T13:10:54;28.80;41.50
4107;DHT22;21906;50.812;7.132;2022-08-19T13:13:19;28.70;41.40
4107;DHT22;21906;50.812;7.132;2022-08-19T13:15:45;28.80;41.40
4107;DHT22;21906;50.812;7.132;2022-08-19T13:18:11;28.90;40.60
4107;DHT22;21906;50.812;7.132;2022-08-19T13:20:38;29.10;40.30
4107;DHT22;21906;50.812;7.132;2022-08-19T13:23:06;29.10;38.60
4107;DHT22;21906;50.812;7.132;2022-08-19T13:25:32;29.20;38.10
4107;DHT22;21906;50.812;7.132;2022-08-19T13:27:59;29.40;36.90
4107;DHT22;21906;50.812;7.132;2022-08-19T13:30:25;29.50;38.00
4107;DHT22;21906;50.812;7.132;2022-08-19T13:33:09;29.60;38.50
4107;DHT22;21906;50.812;7.132;2022-08-19T13:35:49;29.80;38.80
4107;DHT22;21906;50.812;7.132;2022-08-19T13:38:20;30.10;37.80
4107;DHT22;21906;50.812;7.132;2022-08-19T13:40:46;30.10;37.60
4107;DHT22;21906;50.812;7.132;2022-08-19T13:43:13;30.20;37.90
4107;DHT22;21906;50.812;7.132;2022-08-19T13:45:39;29.90;38.80
4107;DHT22;21906;50.812;7.132;2022-08-19T13:48:06;29.90;39.00
4107;DHT22;21906;50.812;7.132;2022-08-19T13:50:35;29.90;39.80
4107;DHT22;21906;50.812;7.132;2022-08-19T13:53:01;29.90;39.90
4107;DHT22;21906;50.812;7.132;2022-08-19T13:55:27;29.90;39.50
4107;DHT22;21906;50.812;7.132;2022-08-19T13:57:54;29.90;39.60
4107;DHT22;21906;50.812;7.132;2022-08-19T14:00:22;30.00;39.20
4107;DHT22;21906;50.812;7.132;2022-08-19T14:02:53;30.30;38.30
4107;DHT22;21906;50.812;7.132;2022-08-19T14:05:19;30.50;37.80
4107;DHT22;21906;50.812;7.132;2022-08-19T14:07:45;30.50;38.50
4107;DHT22;21906;50.812;7.132;2022-08-19T14:10:12;30.70;36.30
4107;DHT22;21906;50.812;7.132;2022-08-19T14:12:39;30.60;36.60
4107;DHT22;21906;50.812;7.132;2022-08-19T14:15:06;30.90;36.70
4107;DHT22;21906;50.812;7.132;2022-08-19T14:17:32;31.10;36.10
4107;DHT22;21906;50.812;7.132;2022-08-19T14:20:02;31.00;36.00
4107;DHT22;21906;50.812;7.132;2022-08-19T14:22:33;31.10;36.80
4107;DHT22;21906;50.812;7.132;2022-08-19T14:24:59;31.50;33.60
4107;DHT22;21906;50.812;7.132;2022-08-19T14:27:24;31.80;33.70
4107;DHT22;21906;50.812;7.132;2022-08-19T14:29:51;32.00;33.50
4107;DHT22;21906;50.812;7.132;2022-08-19T14:32:17;32.30;33.20
4107;DHT22;21906;50.812;7.132;2022-08-19T14:34:43;32.20;32.90
4107;DHT22;21906;50.812;7.132;2022-08-19T14:37:11;32.40;33.30
4107;DHT22;21906;50.812;7.132;2022-08-19T14:39:40;32.10;34.10
4107;DHT22;21906;50.812;7.132;2022-08-19T14:42:09;32.10;33.40
4107;DHT22;21906;50.812;7.132;2022-08-19T14:44:35;32.40;33.30
4107;DHT22;21906;50.812;7.132;2022-08-19T14:47:02;32.40;32.80
4107;DHT22;21906;50.812;7.132;2022-08-19T14:49:27;32.50;32.70
4107;DHT22;21906;50.812;7.132;2022-08-19T14:51:53;32.70;32.50
4107;DHT22;21906;50.812;7.132;2022-08-19T14:54:19;33.00;32.20
4107;DHT22;21906;50.812;7.132;2022-08-19T14:56:44;33.50;30.40
4107;DHT22;21906;50.812;7.132;2022-08-19T14:59:10;33.70;29.70
4107;DHT22;21906;50.812;7.132;2022-08-19T15:01:36;33.90;29.20
4107;DHT22;21906;50.812;7.132;2022-08-19T15:04:02;34.10;29.20
4107;DHT22;21906;50.812;7.132;2022-08-19T15:06:28;34.10;29.50
4107;DHT22;21906;50.812;7.132;2022-08-19T15:08:55;34.00;30.10
4107;DHT22;21906;50.812;7.132;2022-08-19T15:11:23;34.40;29.80
4107;DHT22;21906;50.812;7.132;2022-08-19T15:13:51;34.90;29.20
4107;DHT22;21906;50.812;7.132;2022-08-19T15:16:17;34.90;29.40
4107;DHT22;21906;50.812;7.132;2022-08-19T15:18:44;35.20;29.40
4107;DHT22;21906;50.812;7.132;2022-08-19T15:21:12;35.50;29.30
4107;DHT22;21906;50.812;7.132;2022-08-19T15:23:39;35.50;29.60
4107;DHT22;21906;50.812;7.132;2022-08-19T15:26:05;36.10;28.70
4107;DHT22;21906;50.812;7.132;2022-08-19T15:28:34;36.80;27.90
4107;DHT22;21906;50.812;7.132;2022-08-19T15:31:00;37.50;26.40
4107;DHT22;21906;50.812;7.132;2022-08-19T15:33:26;38.30;26.10
4107;DHT22;21906;50.812;7.132;2022-08-19T15:35:52;37.80;26.20
4107;DHT22;21906;50.812;7.132;2022-08-19T15:38:19;38.20;25.10
4107;DHT22;21906;50.812;7.132;2022-08-19T15:40:47;37.40;25.90
4107;DHT22;21906;50.812;7.132;2022-08-19T15:43:14;36.00;27.50
4107;DHT22;21906;50.812;7.132;2022-08-19T15:45:41;34.60;29.20
4107;DHT22;21906;50.812;7.132;2022-08-19T15:48:07;33.60;30.40
4107;DHT22;21906;50.812;7.132;2022-08-19T15:50:33;32.70;31.80
4107;DHT22;21906;50.812;7.132;2022-08-19T15:53:06;32.00;32.50
4107;DHT22;21906;50.812;7.132;2022-08-19T15:55:34;32.30;32.60
4107;DHT22;21906;50.812;7.132;2022-08-19T15:58:05;33.20;31.10
4107;DHT22;21906;50.812;7.132;2022-08-19T16:00:50;33.90;30.00